createdAt,value
2023-05-03T00:01:47.034Z,9.2
2023-05-03T00:04:13.194Z,9.3
2023-05-03T00:06:39.306Z,9.3
2023-05-03T00:09:04.217Z,9.3
2023-05-03T00:11:30.497Z,9.4
2023-05-03T00:13:56.616Z,9.4
2023-05-03T00:16:22.497Z,9.4
2023-05-03T00:18:48.669Z,9.4
2023-05-03T00:21:13.706Z,9.5
2023-05-03T00:23:39.892Z,9.5
2023-05-03T00:26:06.000Z,9.6
2023-05-03T00:28:32.098Z,9.6
2023-05-03T00:30:58.074Z,9.5
2023-05-03T00:33:24.329Z,9.5
2023-05-03T00:35:50.450Z,9.5
2023-05-03T00:38:16.559Z,9.7
2023-05-03T00:40:42.438Z,9.7
2023-05-03T00:43:08.648Z,9.7
2023-05-03T00:45:34.824Z,9.8
2023-05-03T00:48:00.835Z,9.8
2023-05-03T00:50:26.942Z,9.8
2023-05-03T00:52:52.079Z,9.9
2023-05-03T00:55:18.060Z,9.8
2023-05-03T00:57:44.278Z,9.7
2023-05-03T01:00:10.357Z,9.7
2023-05-03T01:02:36.506Z,9.7
2023-05-03T01:05:02.450Z,9.7
2023-05-03T01:07:28.536Z,9.7
2023-05-03T01:09:54.662Z,9.7
2023-05-03T01:12:20.766Z,9.7
2023-05-03T01:14:46.934Z,9.7
2023-05-03T01:17:12.873Z,9.6
2023-05-03T01:19:39.137Z,9.5
2023-05-03T01:22:05.195Z,9.5
2023-05-03T01:24:30.251Z,9.6
2023-05-03T01:26:56.282Z,9.5
2023-05-03T01:29:22.461Z,9.5
2023-05-03T01:31:48.612Z,9.6
2023-05-03T01:34:14.697Z,9.6
2023-05-03T01:36:40.806Z,9.6
2023-05-03T01:39:06.769Z,9.6
2023-05-03T01:41:32.925Z,9.5
2023-05-03T01:43:59.053Z,9.4
2023-05-03T01:46:25.120Z,9.4
2023-05-03T01:48:51.284Z,9.4
2023-05-03T01:51:17.308Z,9.3
2023-05-03T01:53:43.406Z,9.2
2023-05-03T01:56:08.580Z,9.2
2023-05-03T01:58:34.518Z,9.2
2023-05-03T02:01:00.751Z,9.1
2023-05-03T02:03:26.730Z,9.1
2023-05-03T02:05:52.914Z,9
2023-05-03T02:08:19.110Z,9
2023-05-03T02:10:45.221Z,9
2023-05-03T02:13:11.217Z,8.9
2023-05-03T02:15:37.455Z,8.9
2023-05-03T02:18:03.448Z,8.8
2023-05-03T02:20:29.497Z,8.7
2023-05-03T02:22:55.548Z,8.7
2023-05-03T02:25:21.791Z,8.6
2023-05-03T02:27:46.911Z,8.4
2023-05-03T02:30:12.786Z,8.3
2023-05-03T02:32:38.926Z,8.3
2023-05-03T02:35:05.053Z,8.3
2023-05-03T02:37:31.171Z,8.3
2023-05-03T02:39:57.181Z,8.2
2023-05-03T02:42:23.268Z,8.3
2023-05-03T02:44:49.424Z,8.3
2023-05-03T02:47:15.516Z,8.2
2023-05-03T02:49:41.679Z,8.1
2023-05-03T02:52:07.739Z,8
2023-05-03T02:54:33.913Z,8
2023-05-03T02:56:59.837Z,8
2023-05-03T02:59:24.966Z,8
2023-05-03T03:01:51.189Z,7.9
2023-05-03T03:04:17.163Z,7.8
2023-05-03T03:06:43.295Z,7.8
2023-05-03T03:09:09.342Z,7.8
2023-05-03T03:11:35.574Z,7.7
2023-05-03T03:14:01.512Z,7.6
2023-05-03T03:16:27.766Z,7.6
2023-05-03T03:18:53.723Z,7.5
2023-05-03T03:21:19.862Z,7.5
2023-05-03T03:23:46.004Z,7.5
2023-05-03T03:26:12.143Z,7.4
2023-05-03T03:28:38.143Z,7.5
2023-05-03T03:31:03.239Z,7.6
2023-05-03T03:33:29.379Z,7.5
2023-05-03T03:35:55.385Z,7.5
2023-05-03T03:38:21.520Z,7.5
2023-05-03T03:40:47.748Z,7.4
2023-05-03T03:43:13.750Z,7.4
2023-05-03T03:45:39.902Z,7.4
2023-05-03T03:48:06.038Z,7.4
2023-05-03T03:50:32.140Z,7.3
2023-05-03T03:52:58.132Z,7.4
2023-05-03T03:55:24.154Z,7.4
2023-05-03T03:57:50.415Z,7.4
2023-05-03T04:00:16.339Z,7.3
2023-05-03T04:02:41.572Z,7.3
2023-05-03T04:05:07.636Z,7.3
2023-05-03T04:07:33.764Z,7.2
2023-05-03T04:09:59.874Z,7.2
2023-05-03T04:12:25.856Z,7.3
2023-05-03T04:14:52.017Z,7.3
2023-05-03T04:17:18.034Z,7.4
2023-05-03T04:19:44.181Z,7.4
2023-05-03T04:22:10.234Z,7.4
2023-05-03T04:24:36.493Z,7.4
2023-05-03T04:27:02.594Z,7.4
2023-05-03T04:29:28.514Z,7.5
2023-05-03T04:31:54.627Z,7.5
2023-05-03T04:34:19.716Z,7.5
2023-05-03T04:36:45.921Z,7.5
2023-05-03T04:39:12.049Z,7.5
2023-05-03T04:41:38.100Z,7.5
2023-05-03T04:44:04.247Z,7.5
2023-05-03T04:46:30.344Z,7.6
2023-05-03T04:48:56.309Z,7.6
2023-05-03T04:51:22.527Z,7.7
2023-05-03T04:53:48.677Z,7.8
2023-05-03T04:56:14.730Z,7.8
2023-05-03T04:58:40.848Z,7.8
2023-05-03T05:01:06.894Z,7.9
2023-05-03T05:03:32.956Z,7.9
2023-05-03T05:05:58.066Z,8
2023-05-03T05:08:24.112Z,8.1
2023-05-03T05:10:50.160Z,8.2
2023-05-03T05:13:16.345Z,8.3
2023-05-03T05:15:42.345Z,8.3
2023-05-03T05:18:08.536Z,8.5
2023-05-03T05:20:34.671Z,8.4
2023-05-03T05:23:00.813Z,8.5
2023-05-03T05:25:26.748Z,8.5
2023-05-03T05:27:52.993Z,8.5
2023-05-03T05:30:19.083Z,8.6
2023-05-03T05:32:45.228Z,8.7
2023-05-03T05:35:11.256Z,8.8
2023-05-03T05:37:36.310Z,8.9
2023-05-03T05:40:14.815Z,8.9
2023-05-03T05:42:28.614Z,9
2023-05-03T05:44:54.605Z,9.1
2023-05-03T05:47:20.650Z,9.1
2023-05-03T05:49:46.757Z,9.2
2023-05-03T05:52:12.857Z,9.3
2023-05-03T05:54:39.004Z,9.4
2023-05-03T05:57:05.044Z,9.5
2023-05-03T05:59:31.168Z,9.5
2023-05-03T06:01:57.177Z,9.6
2023-05-03T06:04:23.267Z,9.7
2023-05-03T06:06:49.463Z,9.7
2023-05-03T06:09:14.476Z,9.8
2023-05-03T06:11:40.588Z,9.8
2023-05-03T06:14:06.809Z,9.9
2023-05-03T06:16:32.938Z,10
2023-05-03T06:18:58.871Z,10.1
2023-05-03T06:21:25.097Z,10.2
2023-05-03T06:23:51.063Z,10.2
2023-05-03T06:26:17.380Z,10.3
2023-05-03T06:28:43.417Z,10.3
2023-05-03T06:31:09.413Z,10.4
2023-05-03T06:33:35.427Z,10.4
2023-05-03T06:36:01.595Z,10.5
2023-05-03T06:38:27.762Z,10.6
2023-05-03T06:40:52.791Z,10.7
2023-05-03T06:43:18.928Z,10.8
2023-05-03T06:45:44.960Z,10.8
2023-05-03T06:48:11.170Z,10.9
2023-05-03T06:50:37.135Z,11
2023-05-03T06:53:03.336Z,11.1
2023-05-03T06:55:29.437Z,11.3
2023-05-03T06:57:55.413Z,11.4
2023-05-03T07:00:21.646Z,11.5
2023-05-03T07:02:47.705Z,11.6
2023-05-03T07:05:13.762Z,11.7
2023-05-03T07:07:39.781Z,11.7
2023-05-03T07:10:05.988Z,11.8
2023-05-03T07:12:31.045Z,11.8
2023-05-03T07:14:57.224Z,11.9
2023-05-03T07:17:23.304Z,12
2023-05-03T07:19:49.270Z,12.1
2023-05-03T07:22:15.493Z,12.1
2023-05-03T07:24:41.475Z,12.2
2023-05-03T07:27:07.624Z,12.2
2023-05-03T07:29:33.764Z,12.3
2023-05-03T07:31:59.787Z,12.4
2023-05-03T07:34:25.984Z,12.6
2023-05-03T07:36:51.998Z,12.7
2023-05-03T07:39:18.163Z,12.7
2023-05-03T07:41:44.130Z,12.7
2023-05-03T07:44:09.304Z,12.8
2023-05-03T07:46:35.512Z,12.9
2023-05-03T07:49:01.616Z,13
2023-05-03T07:51:27.745Z,13
2023-05-03T07:53:53.719Z,13
2023-05-03T07:56:19.854Z,13.1
2023-05-03T07:58:45.924Z,13.1
2023-05-03T08:01:11.950Z,13.2
2023-05-03T08:03:38.036Z,13.2
2023-05-03T08:06:04.161Z,13.3
2023-05-03T08:08:30.301Z,13.4
2023-05-03T08:10:56.453Z,13.5
2023-05-03T08:13:22.383Z,13.6
2023-05-03T08:15:47.502Z,13.7
2023-05-03T08:18:13.751Z,13.8
2023-05-03T08:20:39.675Z,13.9
2023-05-03T08:23:05.778Z,14
2023-05-03T08:25:31.932Z,14.2
2023-05-03T08:27:58.183Z,14.3
2023-05-03T08:30:23.173Z,14.3
2023-05-03T08:32:49.326Z,14.4
2023-05-03T08:35:15.363Z,14.5
2023-05-03T08:37:41.388Z,14.6
2023-05-03T08:40:07.634Z,14.7
2023-05-03T08:42:33.749Z,14.8
2023-05-03T08:44:59.740Z,14.9
2023-05-03T08:47:26.549Z,15.1
2023-05-03T08:49:51.908Z,15.1
2023-05-03T08:52:18.004Z,15.3
2023-05-03T08:57:10.378Z,15.4
2023-05-03T08:59:36.276Z,15.4
2023-05-03T09:02:01.327Z,15.7
2023-05-03T09:04:27.466Z,15.7
2023-05-03T09:06:53.634Z,15.7
2023-05-03T09:09:19.659Z,15.9
2023-05-03T09:11:45.707Z,16.1
2023-05-03T09:14:11.975Z,16.2
2023-05-03T09:16:37.931Z,16.2
2023-05-03T09:19:03.996Z,16.3
2023-05-03T09:21:30.209Z,16.4
2023-05-03T09:23:56.361Z,16.4
2023-05-03T09:26:22.444Z,16.6
2023-05-03T09:28:48.487Z,16.7
2023-05-03T09:31:14.475Z,16.7
2023-05-03T09:33:39.733Z,16.6
2023-05-03T09:36:05.828Z,16.5
2023-05-03T09:38:31.883Z,16.5
2023-05-03T09:40:57.930Z,16.4
2023-05-03T09:43:24.000Z,16.3
2023-05-03T09:45:50.055Z,16.2
2023-05-03T09:48:16.172Z,16.3
2023-05-03T09:50:42.296Z,16.2
2023-05-03T09:53:08.496Z,16.2
2023-05-03T09:55:34.611Z,16.3
2023-05-03T09:58:00.717Z,16.3
2023-05-03T10:00:26.625Z,16.3
2023-05-03T10:02:52.866Z,16.6
2023-05-03T10:05:17.988Z,16.5
2023-05-03T10:07:44.037Z,16.6
2023-05-03T10:10:10.121Z,16.6
2023-05-03T10:12:36.138Z,16.5
2023-05-03T10:15:02.194Z,16.5
2023-05-03T10:17:28.367Z,16.8
2023-05-03T10:19:54.410Z,17.1
2023-05-03T10:22:20.480Z,17.1
2023-05-03T10:24:46.648Z,17.1
2023-05-03T10:27:12.670Z,17.4
2023-05-03T10:29:38.759Z,17.3
2023-05-03T10:32:04.906Z,17.3
2023-05-03T10:34:30.955Z,17.4
2023-05-03T10:36:56.100Z,17.6
2023-05-03T10:39:22.234Z,17.6
2023-05-03T10:41:48.253Z,17.5
2023-05-03T10:44:14.453Z,17.3
2023-05-03T10:46:40.513Z,17.3
2023-05-03T10:49:06.530Z,17.5
2023-05-03T10:51:32.626Z,17.8
2023-05-03T10:53:58.721Z,18.2
2023-05-03T10:56:24.800Z,18.3
2023-05-03T10:58:50.910Z,18.3
2023-05-03T11:01:17.001Z,18.4
2023-05-03T11:03:43.106Z,18.6
2023-05-03T11:06:09.255Z,18.7
2023-05-03T11:08:34.302Z,18.9
2023-05-03T11:11:00.410Z,19
2023-05-03T11:13:26.498Z,19.1
2023-05-03T11:15:52.604Z,19.2
2023-05-03T11:18:18.688Z,19.2
2023-05-03T11:20:44.790Z,19.2
2023-05-03T11:23:10.982Z,19.2
2023-05-03T11:25:36.962Z,19.3
2023-05-03T11:28:03.080Z,19.5
2023-05-03T11:30:29.174Z,19.6
2023-05-03T11:32:55.253Z,19.7
2023-05-03T11:35:21.395Z,19.8
2023-05-03T11:37:47.468Z,19.9
2023-05-03T11:40:12.571Z,20
2023-05-03T11:42:38.650Z,20
2023-05-03T11:45:04.786Z,20
2023-05-03T11:47:30.845Z,19.7
2023-05-03T11:49:56.921Z,19.4
2023-05-03T11:52:23.110Z,19.5
2023-05-03T11:54:49.131Z,19.6
2023-05-03T11:59:41.311Z,20
2023-05-03T12:02:07.419Z,20.1
2023-05-03T12:04:33.552Z,20.1
2023-05-03T12:06:59.625Z,20.2
2023-05-03T12:09:25.744Z,20.4
2023-05-03T12:11:51.804Z,20.7
2023-05-03T12:16:43.967Z,21.1
2023-05-03T12:19:10.086Z,21.1
2023-05-03T12:21:36.189Z,21
2023-05-03T12:24:02.280Z,21.1
2023-05-03T12:26:28.358Z,21.1
2023-05-03T12:28:54.487Z,21.2
2023-05-03T12:31:20.565Z,21.2
2023-05-03T12:33:46.657Z,21.2
2023-05-03T12:36:12.769Z,21
2023-05-03T12:38:37.921Z,21.2
2023-05-03T12:41:03.951Z,21.4
2023-05-03T12:43:30.074Z,21.4
2023-05-03T12:45:56.252Z,21.6
2023-05-03T12:48:22.320Z,21.6
2023-05-03T12:50:48.340Z,21.6
2023-05-03T12:53:14.436Z,21.7
2023-05-03T12:55:49.003Z,21.8
2023-05-03T12:58:06.686Z,21.5
2023-05-03T13:00:32.724Z,21.8
2023-05-03T13:02:58.884Z,22.1
2023-05-03T13:05:24.972Z,22.5
2023-05-03T13:07:50.996Z,22.2
2023-05-03T13:10:16.148Z,22.2
2023-05-03T13:12:42.236Z,22.3
2023-05-03T13:15:08.450Z,22.5
2023-05-03T13:17:34.396Z,22.5
2023-05-03T13:20:00.488Z,22.9
2023-05-03T13:22:26.603Z,23.2
2023-05-03T13:24:52.797Z,22.9
2023-05-03T13:27:18.768Z,23.1
2023-05-03T13:29:44.908Z,23.1
2023-05-03T13:32:10.987Z,23.3
2023-05-03T13:34:37.114Z,23.1
2023-05-03T13:37:03.197Z,22.8
2023-05-03T13:39:29.238Z,23.3
2023-05-03T13:41:54.485Z,23.3
2023-05-03T13:44:20.457Z,23.2
2023-05-03T13:46:46.643Z,23.7
2023-05-03T13:49:12.777Z,23.5
2023-05-03T13:51:39.033Z,23.7
2023-05-03T13:54:04.986Z,23.5
2023-05-03T13:56:31.013Z,24
2023-05-03T13:58:57.173Z,23.8
2023-05-03T14:01:23.246Z,23.7
2023-05-03T14:03:49.365Z,23.7
2023-05-03T14:06:15.325Z,23.6
2023-05-03T14:08:41.510Z,24.2
2023-05-03T14:11:07.579Z,24.4
2023-05-03T14:13:32.712Z,24.8
2023-05-03T14:15:58.820Z,24.8
2023-05-03T14:18:24.805Z,24.9
2023-05-03T14:20:50.957Z,24.6
2023-05-03T14:23:16.989Z,24.5
2023-05-03T14:25:43.122Z,24.2
2023-05-03T14:28:09.197Z,24.6
2023-05-03T14:30:35.273Z,25.1
2023-05-03T14:33:01.436Z,24.6
2023-05-03T14:35:27.465Z,24.8
2023-05-03T14:37:53.556Z,24.9
2023-05-03T14:40:19.724Z,24.9
2023-05-03T14:42:45.764Z,24.9
2023-05-03T14:45:10.916Z,25.5
2023-05-03T14:47:37.037Z,26
2023-05-03T14:50:03.062Z,26.4
2023-05-03T14:52:29.140Z,25.8
2023-05-03T14:54:55.290Z,25.2
2023-05-03T14:57:21.371Z,25.7
2023-05-03T14:59:47.448Z,25.5
2023-05-03T15:02:13.540Z,24.6
2023-05-03T15:04:39.650Z,24.6
2023-05-03T15:07:05.753Z,24.4
2023-05-03T15:09:31.858Z,24.8
2023-05-03T15:11:57.943Z,25
2023-05-03T15:14:24.027Z,24.8
2023-05-03T15:16:50.209Z,24.6
2023-05-03T15:19:16.329Z,24.4
2023-05-03T15:21:41.326Z,24.3
2023-05-03T15:24:07.433Z,24.9
2023-05-03T15:26:33.549Z,24.7
2023-05-03T15:28:59.642Z,25
2023-05-03T15:31:25.791Z,24.1
2023-05-03T15:33:51.827Z,24
2023-05-03T15:36:17.900Z,24.8
2023-05-03T15:38:44.028Z,25.4
2023-05-03T15:41:10.179Z,25.6
2023-05-03T15:43:36.352Z,26
2023-05-03T15:46:02.432Z,25.2
2023-05-03T15:48:28.389Z,25
2023-05-03T15:50:54.602Z,24.6
2023-05-03T15:53:19.624Z,24.4
2023-05-03T15:55:45.676Z,24.3
2023-05-03T15:58:11.782Z,24.1
2023-05-03T16:00:37.939Z,23.6
2023-05-03T16:03:04.057Z,23.4
2023-05-03T16:05:30.225Z,23.8
2023-05-03T16:07:56.294Z,23.8
2023-05-03T16:10:22.286Z,24.5
2023-05-03T16:12:48.480Z,24.4
2023-05-03T16:15:14.548Z,23.7
2023-05-03T16:17:40.590Z,23.6
2023-05-03T16:20:06.722Z,23.3
2023-05-03T16:22:32.825Z,23.2
2023-05-03T16:24:58.010Z,23.7
2023-05-03T16:27:23.965Z,24.2
2023-05-03T16:29:50.056Z,24
2023-05-03T16:32:16.178Z,24.3
2023-05-03T16:34:42.316Z,24.6
2023-05-03T16:37:08.442Z,24.3
2023-05-03T16:39:33.447Z,23.7
2023-05-03T16:41:59.594Z,23.4
2023-05-03T16:44:25.772Z,23.2
2023-05-03T16:46:51.903Z,22.9
2023-05-03T16:49:17.897Z,22.5
2023-05-03T16:51:44.005Z,22.4
2023-05-03T16:54:10.122Z,22.4
2023-05-03T16:56:36.121Z,22.9
2023-05-03T16:59:02.289Z,22.6
2023-05-03T17:01:28.318Z,22.5
2023-05-03T17:06:20.636Z,22.3
2023-05-03T17:08:46.767Z,22.1
2023-05-03T17:11:11.959Z,22.2
2023-05-03T17:13:37.939Z,22
2023-05-03T17:16:03.998Z,21.9
2023-05-03T17:18:30.193Z,21.7
2023-05-03T17:20:56.150Z,21.5
2023-05-03T17:23:22.255Z,21.4
2023-05-03T17:25:48.332Z,21.2
2023-05-03T17:28:14.379Z,20.8
2023-05-03T17:30:40.548Z,20.5
2023-05-03T17:33:06.779Z,20.2
2023-05-03T17:35:32.714Z,20.1
2023-05-03T17:37:58.833Z,19.9
2023-05-03T17:40:24.955Z,19.8
2023-05-03T17:45:17.199Z,19.7
2023-05-03T17:47:42.145Z,19.6
2023-05-03T17:50:08.312Z,19.5
2023-05-03T17:52:34.457Z,19.4
2023-05-03T17:55:00.578Z,19.3
2023-05-03T17:57:26.534Z,19.2
2023-05-03T17:59:52.736Z,19.1
2023-05-03T18:02:18.825Z,19.1
2023-05-03T18:04:44.825Z,19
2023-05-03T18:07:10.972Z,18.9
2023-05-03T18:09:37.070Z,18.9
2023-05-03T18:12:03.268Z,18.8
2023-05-03T18:14:29.183Z,18.7
2023-05-03T18:16:55.433Z,18.7
2023-05-03T18:19:20.581Z,18.6
2023-05-03T18:21:46.577Z,18.5
2023-05-03T18:24:12.747Z,18.4
2023-05-03T18:26:38.685Z,18.3
2023-05-03T18:29:04.913Z,18.3
2023-05-03T18:31:30.964Z,18.2
2023-05-03T18:33:57.170Z,18
2023-05-03T18:36:23.293Z,17.8
2023-05-03T18:38:49.345Z,17.6
2023-05-03T18:41:15.408Z,17.3
2023-05-03T18:43:41.521Z,17.1
2023-05-03T18:46:07.587Z,17
2023-05-03T18:48:33.635Z,16.8
2023-05-03T18:50:59.763Z,16.5
2023-05-03T18:53:25.732Z,16.3
2023-05-03T18:55:52.028Z,16
2023-05-03T18:58:18.054Z,15.8
2023-05-03T19:00:43.164Z,15.6
2023-05-03T19:03:09.283Z,15.5
2023-05-03T19:05:35.375Z,15.3
2023-05-03T19:08:01.459Z,15.1
2023-05-03T19:10:27.419Z,14.9
2023-05-03T19:12:53.706Z,14.8
2023-05-03T19:15:19.764Z,14.6
2023-05-03T19:17:45.830Z,14.5
2023-05-03T19:20:11.786Z,14.4
2023-05-03T19:22:37.882Z,14.4
2023-05-03T19:25:04.051Z,14.3
2023-05-03T19:27:30.071Z,14.2
2023-05-03T19:29:56.183Z,14.1
2023-05-03T19:32:22.260Z,13.9
2023-05-03T19:34:47.374Z,13.9
2023-05-03T19:37:13.492Z,13.8
2023-05-03T19:39:39.566Z,13.7
2023-05-03T19:42:05.661Z,13.6
2023-05-03T19:44:31.746Z,13.6
2023-05-03T19:46:57.841Z,13.6
2023-05-03T19:49:23.937Z,13.6
2023-05-03T19:51:50.040Z,13.5
2023-05-03T19:54:16.136Z,13.4
2023-05-03T19:56:42.221Z,13.4
2023-05-03T19:59:08.388Z,13.4
2023-05-03T20:01:34.443Z,13.4
2023-05-03T20:04:00.505Z,13.3
2023-05-03T20:06:26.613Z,13.3
2023-05-03T20:08:52.700Z,13.2
2023-05-03T20:11:18.803Z,13.1
2023-05-03T20:13:44.933Z,13.1
2023-05-03T20:16:10.984Z,13
2023-05-03T20:18:36.105Z,12.9
2023-05-03T20:21:02.198Z,12.9
2023-05-03T20:23:28.290Z,12.9
2023-05-03T20:25:54.400Z,12.8
2023-05-03T20:28:20.476Z,12.7
2023-05-03T20:30:46.580Z,12.7
2023-05-03T20:33:12.679Z,12.6
2023-05-03T20:35:38.777Z,12.6
2023-05-03T20:38:04.878Z,12.6
2023-05-03T20:40:30.989Z,12.5
2023-05-03T20:42:57.057Z,12.5
2023-05-03T20:45:23.139Z,12.4
2023-05-03T20:47:49.252Z,12.3
2023-05-03T20:50:14.349Z,12.2
2023-05-03T20:52:40.436Z,12.1
2023-05-03T20:55:06.547Z,12.2
2023-05-03T20:57:32.631Z,12.2
2023-05-03T20:59:58.739Z,12.1
2023-05-03T21:02:24.823Z,12.1
2023-05-03T21:04:50.915Z,12
2023-05-03T21:07:17.011Z,12
2023-05-03T21:09:43.110Z,11.9
2023-05-03T21:12:09.195Z,11.9
2023-05-03T21:14:35.297Z,11.8
2023-05-03T21:17:01.393Z,11.8
2023-05-03T21:19:27.483Z,11.8
2023-05-03T21:21:52.611Z,11.7
2023-05-03T21:24:18.711Z,11.7
2023-05-03T21:26:44.810Z,11.7
2023-05-03T21:29:10.877Z,11.6
2023-05-03T21:31:36.967Z,11.6
2023-05-03T21:34:03.070Z,11.6
2023-05-03T21:36:29.161Z,11.6
2023-05-03T21:38:55.257Z,11.6
2023-05-03T21:41:21.349Z,11.6
2023-05-03T21:43:47.443Z,11.6
2023-05-03T21:46:13.584Z,11.6
2023-05-03T21:48:39.635Z,11.5
2023-05-03T21:51:05.742Z,11.4
2023-05-03T21:53:30.837Z,11.4
2023-05-03T21:55:57.028Z,11.4
2023-05-03T21:58:23.026Z,11.3
2023-05-03T22:00:49.147Z,11.2
2023-05-03T22:03:15.224Z,11.1
2023-05-03T22:05:41.346Z,11
2023-05-03T22:08:07.433Z,11
2023-05-03T22:10:33.499Z,11
2023-05-03T22:12:59.591Z,11
2023-05-03T22:15:25.714Z,10.9
2023-05-03T22:17:51.800Z,10.9
2023-05-03T22:20:17.887Z,10.9
2023-05-03T22:22:44.029Z,10.8
2023-05-03T22:25:09.090Z,10.8
2023-05-03T22:27:35.183Z,10.8
2023-05-03T22:30:01.297Z,10.8
2023-05-03T22:32:27.396Z,10.8
2023-05-03T22:34:53.510Z,10.8
2023-05-03T22:37:19.583Z,10.7
2023-05-03T22:39:45.718Z,10.6
2023-05-03T22:42:11.797Z,10.6
2023-05-03T22:44:37.861Z,10.5
2023-05-03T22:47:03.959Z,10.3
2023-05-03T22:49:30.064Z,10.2
2023-05-03T22:51:56.150Z,10.2
2023-05-03T22:54:22.257Z,10.2
2023-05-03T22:56:47.357Z,10.3
2023-05-03T22:59:13.473Z,10.2
2023-05-03T23:01:39.542Z,10.3
2023-05-03T23:04:05.657Z,10.2
2023-05-03T23:06:31.762Z,10.3
2023-05-03T23:08:57.832Z,10.2
2023-05-03T23:11:23.930Z,10.2
2023-05-03T23:13:50.023Z,10.2
2023-05-03T23:16:16.129Z,10.1
2023-05-03T23:18:42.224Z,10
2023-05-03T23:21:08.302Z,10
2023-05-03T23:23:34.450Z,10
2023-05-03T23:26:00.564Z,10
2023-05-03T23:28:25.604Z,9.9
2023-05-03T23:30:51.695Z,9.9
2023-05-03T23:33:17.802Z,10
2023-05-03T23:35:43.935Z,9.9
2023-05-03T23:38:10.060Z,9.9
